Portland, Oregon
Traffic Map
Current Weather Conditions
Portland, Oregon
Broken Clouds
Broken Clouds
19°
Feels Like: 19°
Wind Chill: 19° Ceiling: 2100
Heat Index: 19° Visibility: 10mi
Dew Point: 13° Wind: 3mph
Humidity: 68% Direction: ° ()
Pressure: 30.05in Gusts: 0mph
Raw Report DataKPDX 221653Z VRB03KT 10SM BKN021 BKN035 19/13 A3005 RMK AO2 SLP173 T01890128
Traffic Incident Summary
Active as of:
Severity:
Category:
InformationThere was an issue retrieving the traffic information for this location. Please try a different location or try again shortly.
Advertisements
Track Severe Weather on mobile